Quartzsite, Arizona
Current Conditions -  °F | °C
As of 4:52 AM on Monday 20 Oct 2014 (Local Time) from KBLH Reporting Station
Clear Clear  
Wind Chill: 67°   Ceiling: Unl
Heat Index: 67°   Visibility: 10mi
Dew Point: 47°   Wind: 0mph
Humidity: 49%   Direction: NA
Pressure: 29.81"   Gusts: NA
Location:  33.67°N, 114.22°W
Report Text: KBLH 201152Z AUTO 00000KT 10SM CLR 19/08 A2981 RMK AO2 SLP090 T01940083 10261 20194 53005
Loading
Personal Weather Stations






























Interactive Weather Map
Tropical Storm Tracking
New forecast layout! Learn more

10-Day Weather Forecast

Advertisements
Track Severe Weather on mobile